createdAt,value
2018-07-27T00:00:38.962Z,25.67
2018-07-27T00:01:38.970Z,25.68
2018-07-27T00:02:38.950Z,25.71
2018-07-27T00:03:38.975Z,25.7
2018-07-27T00:04:39.002Z,25.71
2018-07-27T00:05:38.940Z,25.75
2018-07-27T00:06:38.972Z,25.81
2018-07-27T00:07:39.066Z,25.8
2018-07-27T00:08:38.970Z,25.8
2018-07-27T00:09:38.974Z,25.81
2018-07-27T00:10:39.029Z,25.81
2018-07-27T00:11:38.964Z,25.82
2018-07-27T00:12:38.962Z,25.84
2018-07-27T00:13:38.984Z,25.87
2018-07-27T00:14:38.953Z,25.88
2018-07-27T00:15:39.078Z,25.81
2018-07-27T00:16:39.006Z,25.77
2018-07-27T00:17:38.961Z,25.77
2018-07-27T00:18:39.149Z,25.77
2018-07-27T00:19:39.031Z,25.77
2018-07-27T00:20:39.023Z,25.78
2018-07-27T00:21:39.150Z,25.81
2018-07-27T00:22:39.018Z,25.75
2018-07-27T00:23:39.071Z,25.77
2018-07-27T00:24:38.986Z,25.77
2018-07-27T00:25:39.049Z,25.75
2018-07-27T00:26:39.013Z,25.68
2018-07-27T00:27:38.980Z,25.68
2018-07-27T00:28:39.006Z,25.68
2018-07-27T00:29:39.091Z,25.68
2018-07-27T00:30:39.002Z,25.7
2018-07-27T00:31:38.987Z,25.7
2018-07-27T00:32:39.005Z,25.71
2018-07-27T00:33:39.090Z,25.7
2018-07-27T00:34:39.053Z,25.67
2018-07-27T00:35:39.031Z,25.65
2018-07-27T00:36:39.010Z,25.64
2018-07-27T00:37:39.008Z,25.57
2018-07-27T00:38:39.017Z,25.53
2018-07-27T00:39:39.096Z,25.54
2018-07-27T00:40:38.999Z,25.57
2018-07-27T00:41:39.045Z,25.54
2018-07-27T00:42:39.136Z,25.51
2018-07-27T00:43:39.009Z,25.47
2018-07-27T00:44:39.178Z,25.5
2018-07-27T00:45:39.022Z,25.5
2018-07-27T00:46:39.002Z,25.47
2018-07-27T00:47:39.017Z,25.5
2018-07-27T00:48:39.023Z,25.5
2018-07-27T00:49:39.027Z,25.47
2018-07-27T00:50:39.008Z,25.37
2018-07-27T00:51:39.019Z,25.33
2018-07-27T00:52:39.008Z,25.34
2018-07-27T00:53:39.012Z,25.36
2018-07-27T00:54:39.007Z,25.37
2018-07-27T00:55:39.036Z,25.37
2018-07-27T00:56:39.042Z,25.36
2018-07-27T00:57:39.043Z,25.33
2018-07-27T00:58:39.049Z,25.32
2018-07-27T00:59:39.027Z,25.27
2018-07-27T01:00:39.057Z,25.26
2018-07-27T01:01:39.036Z,25.26
2018-07-27T01:02:39.024Z,25.25
2018-07-27T01:03:39.018Z,25.23
2018-07-27T01:04:39.071Z,25.25
2018-07-27T01:05:39.262Z,25.23
2018-07-27T01:06:39.052Z,25.17
2018-07-27T01:07:39.116Z,25.13
2018-07-27T01:08:39.064Z,25.15
2018-07-27T01:09:39.063Z,25.16
2018-07-27T01:10:39.089Z,25.09
2018-07-27T01:11:39.043Z,25.08
2018-07-27T01:12:39.058Z,25.08
2018-07-27T01:13:39.081Z,25.09
2018-07-27T01:14:39.061Z,25.06
2018-07-27T01:15:39.067Z,25.01
2018-07-27T01:16:39.035Z,25.01
2018-07-27T01:17:39.155Z,25.01
2018-07-27T01:18:39.081Z,24.99
2018-07-27T01:19:39.058Z,24.99
2018-07-27T01:20:39.083Z,24.95
2018-07-27T01:21:39.117Z,24.97
2018-07-27T01:22:39.082Z,24.92
2018-07-27T01:23:39.267Z,24.95
2018-07-27T01:24:39.100Z,24.92
2018-07-27T01:25:39.088Z,24.86
2018-07-27T01:26:39.109Z,24.88
2018-07-27T01:27:39.261Z,24.91
2018-07-27T01:28:39.108Z,24.89
2018-07-27T01:29:39.290Z,24.88
2018-07-27T01:30:39.057Z,24.91
2018-07-27T01:31:39.211Z,24.89
2018-07-27T01:32:39.146Z,24.89
2018-07-27T01:33:39.068Z,24.88
2018-07-27T01:34:39.265Z,24.88
2018-07-27T01:35:39.067Z,24.86
2018-07-27T01:36:39.089Z,24.88
2018-07-27T01:37:39.135Z,24.86
2018-07-27T01:38:39.111Z,24.85
2018-07-27T01:39:39.119Z,24.86
2018-07-27T01:40:39.099Z,24.88
2018-07-27T01:41:39.111Z,24.89
2018-07-27T01:42:39.130Z,24.89
2018-07-27T01:43:39.170Z,24.85
2018-07-27T01:44:39.288Z,24.78
2018-07-27T01:45:39.084Z,24.74
2018-07-27T01:46:39.130Z,24.72
2018-07-27T01:47:39.094Z,24.7
2018-07-27T01:48:39.180Z,24.7
2018-07-27T01:49:39.118Z,24.67
2018-07-27T01:50:39.199Z,24.65
2018-07-27T01:51:39.260Z,24.64
2018-07-27T01:52:39.104Z,24.61
2018-07-27T01:53:39.102Z,24.57
2018-07-27T01:54:39.183Z,24.54
2018-07-27T01:55:39.162Z,24.54
2018-07-27T01:56:39.398Z,24.54
2018-07-27T01:57:39.105Z,24.47
2018-07-27T01:58:39.134Z,24.47
2018-07-27T01:59:39.108Z,24.42
2018-07-27T02:00:39.136Z,24.4
2018-07-27T02:01:39.201Z,24.33
2018-07-27T02:02:39.120Z,24.32
2018-07-27T02:03:39.117Z,24.32
2018-07-27T02:04:39.124Z,24.3
2018-07-27T02:05:39.088Z,24.24
2018-07-27T02:06:39.119Z,24.21
2018-07-27T02:07:39.102Z,24.2
2018-07-27T02:08:39.103Z,24.17
2018-07-27T02:09:39.106Z,24.13
2018-07-27T02:10:39.107Z,24.15
2018-07-27T02:11:39.100Z,24.15
2018-07-27T02:12:39.113Z,24.15
2018-07-27T02:13:39.130Z,24.12
2018-07-27T02:14:39.128Z,24.13
2018-07-27T02:15:39.154Z,24.1
2018-07-27T02:16:39.148Z,24.09
2018-07-27T02:17:39.140Z,24.09
2018-07-27T02:18:39.125Z,24.01
2018-07-27T02:19:39.129Z,24.01
2018-07-27T02:20:39.132Z,23.99
2018-07-27T02:21:39.150Z,23.99
2018-07-27T02:22:39.143Z,23.92
2018-07-27T02:23:39.378Z,23.87
2018-07-27T02:24:39.236Z,23.88
2018-07-27T02:25:39.158Z,23.89
2018-07-27T02:26:39.306Z,23.88
2018-07-27T02:27:39.152Z,23.87
2018-07-27T02:28:39.139Z,23.91
2018-07-27T02:29:39.234Z,23.91
2018-07-27T02:30:39.147Z,23.91
2018-07-27T02:31:39.142Z,23.95
2018-07-27T02:32:39.371Z,23.93
2018-07-27T02:33:39.415Z,23.96
2018-07-27T02:34:39.150Z,23.98
2018-07-27T02:35:39.177Z,23.95
2018-07-27T02:36:39.180Z,23.99
2018-07-27T02:37:39.398Z,23.95
2018-07-27T02:38:39.143Z,23.95
2018-07-27T02:39:39.179Z,23.87
2018-07-27T02:40:39.155Z,23.85
2018-07-27T02:41:39.161Z,23.82
2018-07-27T02:42:39.170Z,23.84
2018-07-27T02:43:39.163Z,23.8
2018-07-27T02:44:39.221Z,23.77
2018-07-27T02:45:39.281Z,23.77
2018-07-27T02:46:39.213Z,23.77
2018-07-27T02:47:39.212Z,23.81
2018-07-27T02:48:39.231Z,23.8
2018-07-27T02:49:39.268Z,23.8
2018-07-27T02:50:39.192Z,23.8
2018-07-27T02:51:39.327Z,23.8
2018-07-27T02:52:39.316Z,23.8
2018-07-27T02:53:39.198Z,23.78
2018-07-27T02:54:39.198Z,23.81
2018-07-27T02:55:39.165Z,23.77
2018-07-27T02:56:39.202Z,23.75
2018-07-27T02:57:39.502Z,23.73
2018-07-27T02:58:39.235Z,23.74
2018-07-27T02:59:39.261Z,23.73
2018-07-27T03:00:39.371Z,23.73
2018-07-27T03:01:39.222Z,23.71
2018-07-27T03:02:39.210Z,23.73
2018-07-27T03:03:39.176Z,23.73
2018-07-27T03:04:39.293Z,23.69
2018-07-27T03:05:39.397Z,23.73
2018-07-27T03:06:39.206Z,23.73
2018-07-27T03:07:39.200Z,23.69
2018-07-27T03:08:39.204Z,23.69
2018-07-27T03:09:39.387Z,23.67
2018-07-27T03:10:39.232Z,23.65
2018-07-27T03:11:39.193Z,23.61
2018-07-27T03:12:39.244Z,23.61
2018-07-27T03:13:39.325Z,23.54
2018-07-27T03:14:39.407Z,23.39
2018-07-27T03:15:39.196Z,23.43
2018-07-27T03:16:39.213Z,23.44
2018-07-27T03:17:39.257Z,23.44
2018-07-27T03:18:39.227Z,23.37
2018-07-27T03:19:39.212Z,23.09
2018-07-27T03:20:39.220Z,23.16
2018-07-27T03:21:39.238Z,23.16
2018-07-27T03:22:39.207Z,23.11
2018-07-27T03:23:39.223Z,23.09
2018-07-27T03:24:39.356Z,23.06
2018-07-27T03:25:39.212Z,23.07
2018-07-27T03:26:39.203Z,23.07
2018-07-27T03:27:39.250Z,23.01
2018-07-27T03:28:39.215Z,23.03
2018-07-27T03:29:39.314Z,22.99
2018-07-27T03:30:39.247Z,23.01
2018-07-27T03:31:39.222Z,22.96
2018-07-27T03:32:39.212Z,22.95
2018-07-27T03:33:39.264Z,22.92
2018-07-27T03:34:39.258Z,22.92
2018-07-27T03:35:39.243Z,22.89
2018-07-27T03:36:39.235Z,22.91
2018-07-27T03:37:39.229Z,22.89
2018-07-27T03:38:39.243Z,22.79
2018-07-27T03:39:39.239Z,22.74
2018-07-27T03:40:39.341Z,22.74
2018-07-27T03:41:39.264Z,22.72
2018-07-27T03:42:39.297Z,22.71
2018-07-27T03:43:39.349Z,22.71
2018-07-27T03:44:39.232Z,22.67
2018-07-27T03:45:39.231Z,22.64
2018-07-27T03:46:39.286Z,22.6
2018-07-27T03:47:39.319Z,22.51
2018-07-27T03:48:39.439Z,22.33
2018-07-27T03:49:39.249Z,22.24
2018-07-27T03:50:39.275Z,22.23
2018-07-27T03:51:39.300Z,22.19
2018-07-27T03:52:39.289Z,22.17
2018-07-27T03:53:39.267Z,22.16
2018-07-27T03:54:39.239Z,22.09
2018-07-27T03:55:39.259Z,22.15
2018-07-27T03:56:39.287Z,22.17
2018-07-27T03:57:39.323Z,22.17
2018-07-27T03:58:39.244Z,22.19
2018-07-27T03:59:39.326Z,22.2
2018-07-27T04:00:39.471Z,22.22
2018-07-27T04:01:39.249Z,22.22
2018-07-27T04:02:39.328Z,22.22
2018-07-27T04:03:39.445Z,22.19
2018-07-27T04:04:39.246Z,22.16
2018-07-27T04:05:39.338Z,22.19
2018-07-27T04:06:39.253Z,22.16
2018-07-27T04:07:39.290Z,22.06
2018-07-27T04:08:39.459Z,22.13
2018-07-27T04:09:39.275Z,22.16
2018-07-27T04:10:39.260Z,22.15
2018-07-27T04:11:39.358Z,22.16
2018-07-27T04:12:39.250Z,22.2
2018-07-27T04:13:39.323Z,22.17
2018-07-27T04:14:39.355Z,22.2
2018-07-27T04:15:39.271Z,22.22
2018-07-27T04:16:39.462Z,22.2
2018-07-27T04:17:39.278Z,22.22
2018-07-27T04:18:39.309Z,22.16
2018-07-27T04:19:39.360Z,22.17
2018-07-27T04:20:39.274Z,22.2
2018-07-27T04:21:39.357Z,22.22
2018-07-27T04:22:39.390Z,22.23
2018-07-27T04:23:39.308Z,22.26
2018-07-27T04:24:39.354Z,22.23
2018-07-27T04:25:39.276Z,22.22
2018-07-27T04:26:39.317Z,22.17
2018-07-27T04:27:39.298Z,22.17
2018-07-27T04:28:39.408Z,22.19
2018-07-27T04:29:39.313Z,22.2
2018-07-27T04:30:39.343Z,22.19
2018-07-27T04:31:39.361Z,22.03
2018-07-27T04:32:39.302Z,22.12
2018-07-27T04:33:39.297Z,22.09
2018-07-27T04:34:39.323Z,22.06
2018-07-27T04:35:39.538Z,22.09
2018-07-27T04:36:39.289Z,22.11
2018-07-27T04:37:39.335Z,22.05
2018-07-27T04:38:39.322Z,22.05
2018-07-27T04:39:39.296Z,22.08
2018-07-27T04:40:39.318Z,22.05
2018-07-27T04:41:39.320Z,22.06
2018-07-27T04:42:39.312Z,22.08
2018-07-27T04:43:39.337Z,22.08
2018-07-27T04:44:39.309Z,22.09
2018-07-27T04:45:39.290Z,22.11
2018-07-27T04:46:39.347Z,22.11
2018-07-27T04:47:39.304Z,21.94
2018-07-27T04:48:39.354Z,21.98
2018-07-27T04:49:39.381Z,22.05
2018-07-27T04:50:39.318Z,22.05
2018-07-27T04:51:39.331Z,22.08
2018-07-27T04:52:39.315Z,22.11
2018-07-27T04:53:39.390Z,22.13
2018-07-27T04:54:39.368Z,22.17
2018-07-27T04:55:39.341Z,22.23
2018-07-27T04:56:39.779Z,22.23
2018-07-27T04:57:39.409Z,22.24
2018-07-27T04:58:39.363Z,22.3
2018-07-27T04:59:39.432Z,22.29
2018-07-27T05:00:39.353Z,22.19
2018-07-27T05:01:39.463Z,22.23
2018-07-27T05:02:39.422Z,22.26
2018-07-27T05:03:39.372Z,22.29
2018-07-27T05:04:39.547Z,22.31
2018-07-27T05:05:39.369Z,22.33
2018-07-27T05:06:39.367Z,22.34
2018-07-27T05:07:39.513Z,22.36
2018-07-27T05:08:39.423Z,22.36
2018-07-27T05:09:39.394Z,22.36
2018-07-27T05:10:39.368Z,22.37
2018-07-27T05:11:39.398Z,22.36
2018-07-27T05:12:39.387Z,22.39
2018-07-27T05:13:39.349Z,22.41
2018-07-27T05:14:39.377Z,22.43
2018-07-27T05:15:39.361Z,22.46
2018-07-27T05:16:39.496Z,22.54
2018-07-27T05:17:39.348Z,22.56
2018-07-27T05:18:39.461Z,22.56
2018-07-27T05:19:39.365Z,22.57
2018-07-27T05:20:39.419Z,22.63
2018-07-27T05:21:39.377Z,22.63
2018-07-27T05:22:39.384Z,22.65
2018-07-27T05:23:39.389Z,22.68
2018-07-27T05:24:39.710Z,22.68
2018-07-27T05:25:39.425Z,22.74
2018-07-27T05:26:39.444Z,22.74
2018-07-27T05:27:39.383Z,22.81
2018-07-27T05:28:39.639Z,22.82
2018-07-27T05:29:39.446Z,22.88
2018-07-27T05:30:39.425Z,22.92
2018-07-27T05:31:39.419Z,22.94
2018-07-27T05:32:39.389Z,22.95
2018-07-27T05:33:39.406Z,22.98
2018-07-27T05:34:39.547Z,23.01
2018-07-27T05:35:39.411Z,23.02
2018-07-27T05:36:39.403Z,23.02
2018-07-27T05:37:39.471Z,23.05
2018-07-27T05:38:39.652Z,23.11
2018-07-27T05:39:39.492Z,23.12
2018-07-27T05:40:39.411Z,23.16
2018-07-27T05:41:39.392Z,23.16
2018-07-27T05:42:39.407Z,23.2
2018-07-27T05:43:39.409Z,23.22
2018-07-27T05:44:39.429Z,23.25
2018-07-27T05:45:39.492Z,23.29
2018-07-27T05:46:39.464Z,23.3
2018-07-27T05:47:39.413Z,23.32
2018-07-27T05:48:39.628Z,23.36
2018-07-27T05:49:39.564Z,23.37
2018-07-27T05:50:39.405Z,23.39
2018-07-27T05:51:39.465Z,23.4
2018-07-27T05:52:39.542Z,23.43
2018-07-27T05:53:39.430Z,23.46
2018-07-27T05:54:39.415Z,23.47
2018-07-27T05:55:39.438Z,23.48
2018-07-27T05:56:39.406Z,23.48
2018-07-27T05:57:39.425Z,23.47
2018-07-27T05:58:39.474Z,23.51
2018-07-27T05:59:39.453Z,23.54
2018-07-27T06:00:39.448Z,23.57
2018-07-27T06:01:39.436Z,23.61
2018-07-27T06:02:39.634Z,23.62
2018-07-27T06:03:39.477Z,23.67
2018-07-27T06:04:39.457Z,23.73
2018-07-27T06:05:39.422Z,23.74
2018-07-27T06:06:39.435Z,23.74
2018-07-27T06:07:39.435Z,23.77
2018-07-27T06:08:39.558Z,23.78
2018-07-27T06:09:39.433Z,23.82
2018-07-27T06:10:39.444Z,23.87
2018-07-27T06:11:39.472Z,23.88
2018-07-27T06:12:39.487Z,23.89
2018-07-27T06:13:39.477Z,23.92
2018-07-27T06:14:39.450Z,23.93
2018-07-27T06:15:39.523Z,23.98
2018-07-27T06:16:39.468Z,23.99
2018-07-27T06:17:39.441Z,23.99
2018-07-27T06:18:39.446Z,24.02
2018-07-27T06:19:39.677Z,24.08
2018-07-27T06:20:39.458Z,24.08
2018-07-27T06:21:39.488Z,24.1
2018-07-27T06:22:39.445Z,24.15
2018-07-27T06:23:39.505Z,24.17
2018-07-27T06:24:39.538Z,24.19
2018-07-27T06:25:39.742Z,24.23
2018-07-27T06:26:39.843Z,24.23
2018-07-27T06:27:39.535Z,24.26
2018-07-27T06:28:39.538Z,24.29
2018-07-27T06:29:39.632Z,24.32
2018-07-27T06:30:39.480Z,24.35
2018-07-27T06:31:39.541Z,24.36
2018-07-27T06:32:40.083Z,24.4
2018-07-27T06:33:39.479Z,24.43
2018-07-27T06:34:39.504Z,24.44
2018-07-27T06:35:39.460Z,24.44
2018-07-27T06:36:39.576Z,24.47
2018-07-27T06:37:39.499Z,24.5
2018-07-27T06:38:39.632Z,24.51
2018-07-27T06:39:39.485Z,24.53
2018-07-27T06:40:39.483Z,24.53
2018-07-27T06:41:39.490Z,24.54
2018-07-27T06:42:39.623Z,24.53
2018-07-27T06:43:39.536Z,24.46
2018-07-27T06:44:39.659Z,24.46
2018-07-27T06:45:39.486Z,24.48
2018-07-27T06:46:39.521Z,24.51
2018-07-27T06:47:39.496Z,24.55
2018-07-27T06:48:39.479Z,24.58
2018-07-27T06:49:39.483Z,24.64
2018-07-27T06:50:39.595Z,24.67
2018-07-27T06:51:39.516Z,24.7
2018-07-27T06:52:39.505Z,24.71
2018-07-27T06:53:39.569Z,24.75
2018-07-27T06:54:39.540Z,24.74
2018-07-27T06:55:39.596Z,24.77
2018-07-27T06:56:39.645Z,24.79
2018-07-27T06:57:39.568Z,24.85
2018-07-27T06:58:39.547Z,24.86
2018-07-27T06:59:39.487Z,24.89
2018-07-27T07:00:39.615Z,24.94
2018-07-27T07:01:39.511Z,24.97
2018-07-27T07:02:39.480Z,24.99
2018-07-27T07:03:39.588Z,25.02
2018-07-27T07:04:39.487Z,25.03
2018-07-27T07:05:39.583Z,25.06
2018-07-27T07:06:39.518Z,25.09
2018-07-27T07:07:39.570Z,25.13
2018-07-27T07:08:39.504Z,25.19
2018-07-27T07:09:39.500Z,25.2
2018-07-27T07:10:39.514Z,25.25
2018-07-27T07:11:39.494Z,25.29
2018-07-27T07:12:39.499Z,25.27
2018-07-27T07:13:39.530Z,25.32
2018-07-27T07:14:39.535Z,25.34
2018-07-27T07:15:39.520Z,25.4
2018-07-27T07:16:41.792Z,25.43
2018-07-27T07:17:39.479Z,25.47
2018-07-27T07:18:39.538Z,25.5
2018-07-27T07:19:39.518Z,25.58
2018-07-27T07:20:39.529Z,25.57
2018-07-27T07:21:39.546Z,25.61
2018-07-27T07:22:39.509Z,25.64
2018-07-27T07:23:39.529Z,25.65
2018-07-27T07:24:39.527Z,25.7
2018-07-27T07:25:40.515Z,25.74
2018-07-27T07:26:39.522Z,25.78
2018-07-27T07:27:39.547Z,25.78
2018-07-27T07:28:39.517Z,25.82
2018-07-27T07:29:39.519Z,25.84
2018-07-27T07:30:39.519Z,25.89
2018-07-27T07:31:39.503Z,25.93
2018-07-27T07:32:39.520Z,25.91
2018-07-27T07:33:39.572Z,25.96
2018-07-27T07:34:39.510Z,25.98
2018-07-27T07:35:39.523Z,26.03
2018-07-27T07:36:39.631Z,26.08
2018-07-27T07:37:39.583Z,26.05
2018-07-27T07:38:39.544Z,26.09
2018-07-27T07:39:39.629Z,26.13
2018-07-27T07:40:39.628Z,26.15
2018-07-27T07:41:39.555Z,26.16
2018-07-27T07:42:39.684Z,26.19
2018-07-27T07:43:39.613Z,26.22
2018-07-27T07:44:39.576Z,26.29
2018-07-27T07:45:44.659Z,26.32
2018-07-27T07:46:39.561Z,26.36
2018-07-27T07:47:39.573Z,26.4
2018-07-27T07:48:39.629Z,26.44
2018-07-27T07:49:39.543Z,26.44
2018-07-27T07:50:39.563Z,26.48
2018-07-27T07:51:39.555Z,26.5
2018-07-27T07:52:39.586Z,26.53
2018-07-27T07:53:39.582Z,26.58
2018-07-27T07:54:39.558Z,26.64
2018-07-27T07:55:39.566Z,26.64
2018-07-27T07:56:39.665Z,26.7
2018-07-27T07:57:39.547Z,26.7
2018-07-27T07:58:39.757Z,26.75
2018-07-27T07:59:39.560Z,26.84
2018-07-27T08:00:39.557Z,26.87
2018-07-27T08:01:39.559Z,26.89
2018-07-27T08:02:39.655Z,26.87
2018-07-27T08:03:39.583Z,26.88
2018-07-27T08:04:39.611Z,26.92
2018-07-27T08:05:39.754Z,26.95
2018-07-27T08:06:39.617Z,26.98
2018-07-27T08:07:39.576Z,27.07
2018-07-27T08:08:39.717Z,27.06
2018-07-27T08:09:39.622Z,27.06
2018-07-27T08:10:39.713Z,27.01
2018-07-27T08:11:39.667Z,27.06
2018-07-27T08:12:39.573Z,27.1
2018-07-27T08:13:39.581Z,27.15
2018-07-27T08:14:39.561Z,27.16
2018-07-27T08:15:39.654Z,27.16
2018-07-27T08:16:39.603Z,27.24
2018-07-27T08:17:39.712Z,27.29
2018-07-27T08:18:39.585Z,27.3
2018-07-27T08:19:39.594Z,27.34
2018-07-27T08:20:39.589Z,27.39
2018-07-27T08:21:39.740Z,27.44
2018-07-27T08:22:39.611Z,27.49
2018-07-27T08:23:39.642Z,27.51
2018-07-27T08:24:39.572Z,27.57
2018-07-27T08:25:39.620Z,27.61
2018-07-27T08:26:39.611Z,27.64
2018-07-27T08:27:39.600Z,27.65
2018-07-27T08:28:39.608Z,27.64
2018-07-27T08:29:39.614Z,27.72
2018-07-27T08:30:39.605Z,27.77
2018-07-27T08:31:39.593Z,27.79
2018-07-27T08:32:39.641Z,27.79
2018-07-27T08:33:39.607Z,27.81
2018-07-27T08:34:39.609Z,27.84
2018-07-27T08:35:39.598Z,27.84
2018-07-27T08:36:39.608Z,27.84
2018-07-27T08:37:39.635Z,27.85
2018-07-27T08:38:39.617Z,27.89
2018-07-27T08:39:39.831Z,27.89
2018-07-27T08:40:39.659Z,27.93
2018-07-27T08:41:39.620Z,27.95
2018-07-27T08:42:39.870Z,27.98
2018-07-27T08:43:39.653Z,27.98
2018-07-27T08:44:39.659Z,27.99
2018-07-27T08:45:39.607Z,28.01
2018-07-27T08:46:39.663Z,28.09
2018-07-27T08:47:39.929Z,28.05
2018-07-27T08:48:39.903Z,28.06
2018-07-27T08:49:39.610Z,28.11
2018-07-27T08:50:39.628Z,28.15
2018-07-27T08:51:39.643Z,28.15
2018-07-27T08:52:39.631Z,28.24
2018-07-27T08:53:39.751Z,28.29
2018-07-27T08:54:39.646Z,28.32
2018-07-27T08:55:39.727Z,28.33
2018-07-27T08:56:39.676Z,28.37
2018-07-27T08:57:39.644Z,28.4
2018-07-27T08:58:39.861Z,28.4
2018-07-27T08:59:39.670Z,28.41
2018-07-27T09:00:39.777Z,28.43
2018-07-27T09:01:39.702Z,28.4
2018-07-27T09:02:39.670Z,28.36
2018-07-27T09:03:39.686Z,28.37
2018-07-27T09:04:39.672Z,28.41
2018-07-27T09:05:39.682Z,28.43
2018-07-27T09:06:39.647Z,28.47
2018-07-27T09:07:39.721Z,28.5
2018-07-27T09:08:39.910Z,28.47
2018-07-27T09:09:39.667Z,28.51
2018-07-27T09:10:39.641Z,28.52
2018-07-27T09:11:39.734Z,28.6
2018-07-27T09:12:39.652Z,28.67
2018-07-27T09:13:39.790Z,28.71
2018-07-27T09:14:39.699Z,28.81
2018-07-27T09:15:39.682Z,28.85
2018-07-27T09:16:39.723Z,28.84
2018-07-27T09:17:39.713Z,28.84
2018-07-27T09:18:39.664Z,28.84
2018-07-27T09:19:39.727Z,28.91
2018-07-27T09:20:39.659Z,28.99
2018-07-27T09:21:39.995Z,29.05
2018-07-27T09:22:39.672Z,29.07
2018-07-27T09:23:39.828Z,29.13
2018-07-27T09:24:40.366Z,29.16
2018-07-27T09:25:39.727Z,29.2
2018-07-27T09:26:39.676Z,29.25
2018-07-27T09:27:39.739Z,29.25
2018-07-27T09:28:39.726Z,29.39
2018-07-27T09:29:39.664Z,29.37
2018-07-27T09:30:39.753Z,29.37
2018-07-27T09:31:39.677Z,29.43
2018-07-27T09:32:39.685Z,29.43
2018-07-27T09:33:39.664Z,29.44
2018-07-27T09:34:40.082Z,29.46
2018-07-27T09:35:39.859Z,29.5
2018-07-27T09:36:39.691Z,29.54
2018-07-27T09:37:39.800Z,29.58
2018-07-27T09:38:39.679Z,29.63
2018-07-27T09:39:39.808Z,29.64
2018-07-27T09:40:39.684Z,29.72
2018-07-27T09:41:39.690Z,29.76
2018-07-27T09:42:39.706Z,29.76
2018-07-27T09:43:39.715Z,29.79
2018-07-27T09:44:39.690Z,29.82
2018-07-27T09:45:39.660Z,29.85
2018-07-27T09:46:39.991Z,29.88
2018-07-27T09:47:39.684Z,29.91
2018-07-27T09:48:39.975Z,29.99
2018-07-27T09:49:39.710Z,29.95
2018-07-27T09:50:39.704Z,30.02
2018-07-27T09:51:40.005Z,30.03
2018-07-27T09:52:39.726Z,30.05
2018-07-27T09:53:40.079Z,30.03
2018-07-27T09:54:39.713Z,30.08
2018-07-27T09:55:39.737Z,30.09
2018-07-27T09:56:39.723Z,30.13
2018-07-27T09:57:39.732Z,30.18
2018-07-27T09:58:39.694Z,30.19
2018-07-27T09:59:37.960Z,30.22
2018-07-27T10:00:37.986Z,30.3
2018-07-27T10:01:38.011Z,30.33
2018-07-27T10:02:38.664Z,30.33
2018-07-27T10:03:37.945Z,30.31
2018-07-27T10:04:38.068Z,30.34
2018-07-27T10:05:38.018Z,30.37
2018-07-27T10:06:38.158Z,30.37
2018-07-27T10:07:38.008Z,30.44
2018-07-27T10:08:38.021Z,30.44
2018-07-27T10:09:37.988Z,30.58
2018-07-27T10:10:38.388Z,30.54
2018-07-27T10:11:37.953Z,30.51
2018-07-27T10:12:38.136Z,30.53
2018-07-27T10:13:37.971Z,30.54
2018-07-27T10:14:38.092Z,30.58
2018-07-27T10:15:38.024Z,30.61
2018-07-27T10:16:38.424Z,30.65
2018-07-27T10:17:38.080Z,30.7
2018-07-27T10:18:37.957Z,30.71
2018-07-27T10:19:38.347Z,30.78
2018-07-27T10:20:38.128Z,30.75
2018-07-27T10:21:38.353Z,30.81
2018-07-27T10:22:38.035Z,30.93
2018-07-27T10:23:38.017Z,30.84
2018-07-27T10:24:37.959Z,30.89
2018-07-27T10:25:38.108Z,30.89
2018-07-27T10:26:37.963Z,30.95
2018-07-27T10:27:38.014Z,30.99
2018-07-27T10:28:37.989Z,31.05
2018-07-27T10:29:37.957Z,31.06
2018-07-27T10:30:37.962Z,31.09
2018-07-27T10:31:37.981Z,31.13
2018-07-27T10:32:37.981Z,31.13
2018-07-27T10:33:38.015Z,31.22
2018-07-27T10:34:38.017Z,31.2
2018-07-27T10:35:38.024Z,31.23
2018-07-27T10:36:38.448Z,31.25
2018-07-27T10:37:38.046Z,31.3
2018-07-27T10:38:38.333Z,31.33
2018-07-27T10:39:38.028Z,31.3
2018-07-27T10:40:38.035Z,31.27
2018-07-27T10:41:37.970Z,31.29
2018-07-27T10:42:38.036Z,31.3
2018-07-27T10:43:37.949Z,31.36
2018-07-27T10:44:38.005Z,31.4
2018-07-27T10:45:38.003Z,31.43
2018-07-27T10:46:37.947Z,31.47
2018-07-27T10:47:37.968Z,31.59
2018-07-27T10:48:38.089Z,31.54
2018-07-27T10:49:37.959Z,31.51
2018-07-27T10:50:38.369Z,31.57
2018-07-27T10:51:37.971Z,31.55
2018-07-27T10:52:37.983Z,31.5
2018-07-27T10:53:39.648Z,31.55
2018-07-27T10:54:38.371Z,31.6
2018-07-27T10:55:37.970Z,31.63
2018-07-27T10:56:37.942Z,31.61
2018-07-27T10:57:38.628Z,31.57
2018-07-27T10:58:38.010Z,31.46
2018-07-27T10:59:37.956Z,31.48
2018-07-27T11:00:37.949Z,31.54
2018-07-27T11:01:37.963Z,31.6
2018-07-27T11:02:38.326Z,31.74
2018-07-27T11:03:37.975Z,31.77
2018-07-27T11:04:37.964Z,31.82
2018-07-27T11:05:37.984Z,31.84
2018-07-27T11:06:37.980Z,31.87
2018-07-27T11:07:38.017Z,31.82
2018-07-27T11:08:38.076Z,31.81
2018-07-27T11:09:38.012Z,31.89
2018-07-27T11:10:37.961Z,31.91
2018-07-27T11:11:37.953Z,31.91
2018-07-27T11:12:38.078Z,31.92
2018-07-27T11:13:37.959Z,31.89
2018-07-27T11:14:37.966Z,31.98
2018-07-27T11:15:37.955Z,31.95
2018-07-27T11:16:37.994Z,32.01
2018-07-27T11:17:38.621Z,32.05
2018-07-27T11:18:38.101Z,31.98
2018-07-27T11:19:38.111Z,31.99
2018-07-27T11:20:37.969Z,32.04
2018-07-27T11:21:38.027Z,32.02
2018-07-27T11:22:37.963Z,32.05
2018-07-27T11:23:37.987Z,32.07
2018-07-27T11:24:37.965Z,32.11
2018-07-27T11:25:38.216Z,32.12
2018-07-27T11:26:38.009Z,32.12
2018-07-27T11:27:37.994Z,32.04
2018-07-27T11:28:37.995Z,32.11
2018-07-27T11:29:37.993Z,32.19
2018-07-27T11:30:38.018Z,32.25
2018-07-27T11:31:37.993Z,32.23
2018-07-27T11:32:38.001Z,32.3
2018-07-27T11:33:37.977Z,32.32
2018-07-27T11:34:38.030Z,32.36
2018-07-27T11:35:37.959Z,32.39
2018-07-27T11:36:37.938Z,32.14
2018-07-27T11:37:38.014Z,32.09
2018-07-27T11:38:37.987Z,32.15
2018-07-27T11:39:37.943Z,32.4
2018-07-27T11:40:38.186Z,32.67
2018-07-27T11:41:37.990Z,32.61
2018-07-27T11:42:38.200Z,32.66
2018-07-27T11:43:37.990Z,32.74
2018-07-27T11:44:38.081Z,32.78
2018-07-27T11:45:38.115Z,32.88
2018-07-27T11:46:38.151Z,32.91
2018-07-27T11:47:37.966Z,32.89
2018-07-27T11:48:37.947Z,32.94
2018-07-27T11:49:37.936Z,32.97
2018-07-27T11:50:37.953Z,32.98
2018-07-27T11:51:37.967Z,32.99
2018-07-27T11:52:37.961Z,33.05
2018-07-27T11:53:37.981Z,33.04
2018-07-27T11:54:38.098Z,32.99
2018-07-27T11:55:38.070Z,33.01
2018-07-27T11:56:38.034Z,32.98
2018-07-27T11:57:38.103Z,33.01
2018-07-27T11:58:38.302Z,33.01
2018-07-27T11:59:38.113Z,33.02
2018-07-27T12:00:38.327Z,33.04
2018-07-27T12:01:38.710Z,33.14
2018-07-27T12:02:38.166Z,33.18
2018-07-27T12:03:38.135Z,33.21
2018-07-27T12:04:38.159Z,33.25
2018-07-27T12:05:38.042Z,33.11
2018-07-27T12:06:38.248Z,33.12
2018-07-27T12:07:38.048Z,33.22
2018-07-27T12:08:38.176Z,33.26
2018-07-27T12:09:38.080Z,33.28
2018-07-27T12:10:38.143Z,33.05
2018-07-27T12:11:39.141Z,33.01
2018-07-27T12:12:38.046Z,32.88
2018-07-27T12:13:38.117Z,32.95
2018-07-27T12:14:39.362Z,32.89
2018-07-27T12:15:38.120Z,32.98
2018-07-27T12:16:38.028Z,33.04
2018-07-27T12:17:37.981Z,33.09
2018-07-27T12:18:38.122Z,33.22
2018-07-27T12:19:38.026Z,33.29
2018-07-27T12:20:38.258Z,33.34
2018-07-27T12:21:39.468Z,33.37
2018-07-27T12:22:37.960Z,33.42
2018-07-27T12:23:38.053Z,33.49
2018-07-27T12:24:38.055Z,33.55
2018-07-27T12:25:37.936Z,33.49
2018-07-27T12:26:38.194Z,33.49
2018-07-27T12:27:37.977Z,33.5
2018-07-27T12:28:37.941Z,33.45
2018-07-27T12:29:37.986Z,33.45
2018-07-27T12:30:38.423Z,33.39
2018-07-27T12:31:37.971Z,33.5
2018-07-27T12:32:38.158Z,33.61
2018-07-27T12:33:37.941Z,33.61
2018-07-27T12:34:38.135Z,33.68
2018-07-27T12:35:37.948Z,33.68
2018-07-27T12:36:37.983Z,33.68
2018-07-27T12:37:38.462Z,33.8
2018-07-27T12:38:38.103Z,33.95
2018-07-27T12:39:38.017Z,33.97
2018-07-27T12:40:38.200Z,34.04
2018-07-27T12:41:37.953Z,34.1
2018-07-27T12:42:38.195Z,34.15
2018-07-27T12:43:37.952Z,34.15
2018-07-27T12:44:38.308Z,34.21
2018-07-27T12:45:38.000Z,34.3
2018-07-27T12:46:38.113Z,34.34
2018-07-27T12:47:38.080Z,34.39
2018-07-27T12:48:38.139Z,34.3
2018-07-27T12:49:37.957Z,34.01
2018-07-27T12:50:38.082Z,33.81
2018-07-27T12:51:38.052Z,33.83
2018-07-27T12:52:37.957Z,33.73
2018-07-27T12:53:37.994Z,33.48
2018-07-27T12:54:38.021Z,33.56
2018-07-27T12:55:38.041Z,33.57